Time;durP1;ratioP1;P1;durP2;ratioP2;P2;SDS_P1;SDS_P2;PMS_P1;PMS_P2;Temp;Humidity;BMP_temperature;BMP_pressure;BME280_temperature;BME280_humidity;BME280_pressure;Samples;Min_cycle;Max_cycle;Signal;HPM_P1;HPM_P2
2022/11/02 00:01:29;;;;;;;2.40;0.98;;;20.00;65.90;;;;;;5076782;28;43472;-62
2022/11/02 00:03:57;;;;;;;2.03;1.17;;;20.00;65.90;;;;;;5079982;28;43474;-62
2022/11/02 00:06:24;;;;;;;1.65;1.00;;;20.00;65.90;;;;;;5073191;28;43498;-61
2022/11/02 00:08:52;;;;;;;1.38;0.98;;;20.00;66.00;;;;;;5063188;28;45321;-62
2022/11/02 00:11:19;;;;;;;2.38;1.05;;;20.00;66.00;;;;;;5078469;27;43991;-62
2022/11/02 00:13:46;;;;;;;1.35;0.90;;;20.00;66.00;;;;;;5075861;28;43437;-61
2022/11/02 00:16:16;;;;;;;1.48;0.82;;;20.00;66.00;;;;;;5076733;27;43578;-61
2022/11/02 00:18:46;;;;;;;1.23;0.90;;;19.90;66.00;;;;;;5066554;28;43783;-61
2022/11/02 00:21:17;;;;;;;1.45;1.00;;;19.90;66.00;;;;;;5078563;28;43455;-62
2022/11/02 00:23:45;;;;;;;1.90;1.10;;;20.00;66.00;;;;;;5078838;27;43448;-61
2022/11/02 00:26:13;;;;;;;1.73;0.90;;;19.90;66.00;;;;;;5077050;28;43528;-61
2022/11/02 00:28:40;;;;;;;2.60;1.05;;;19.90;66.00;;;;;;5075779;28;43810;-62
2022/11/02 00:31:08;;;;;;;1.67;1.10;;;19.90;66.00;;;;;;5071987;28;43501;-61
2022/11/02 00:33:35;;;;;;;1.20;0.90;;;19.90;66.00;;;;;;5076735;28;43997;-61
2022/11/02 00:36:04;;;;;;;1.38;0.93;;;19.90;66.00;;;;;;5068208;28;43405;-62
2022/11/02 00:38:31;;;;;;;2.67;1.20;;;19.90;66.00;;;;;;5076151;28;44995;-61
2022/11/02 00:40:58;;;;;;;1.55;0.90;;;19.90;66.00;;;;;;5076631;28;43756;-61
2022/11/02 00:43:26;;;;;;;1.98;1.02;;;19.90;66.00;;;;;;5076401;28;43471;-61
2022/11/02 00:45:53;;;;;;;2.35;0.98;;;19.90;66.10;;;;;;5064263;28;43450;-61
2022/11/02 00:48:21;;;;;;;1.33;1.00;;;19.80;66.10;;;;;;5075413;28;44074;-61
2022/11/02 00:50:49;;;;;;;1.00;0.90;;;19.80;66.00;;;;;;5076913;28;44012;-62
2022/11/02 00:53:18;;;;;;;1.08;0.95;;;19.80;66.00;;;;;;5076669;28;43426;-61
2022/11/02 00:55:52;;;;;;;1.63;0.85;;;19.80;66.10;;;;;;5066337;28;43447;-61
2022/11/02 00:58:20;;;;;;;1.65;1.10;;;19.80;66.10;;;;;;5077381;28;44647;-61
2022/11/02 01:00:49;;;;;;;1.88;0.95;;;19.80;66.10;;;;;;5078141;27;43510;-61
2022/11/02 01:03:16;;;;;;;2.78;1.20;;;19.80;66.10;;;;;;5069307;28;43694;-61
2022/11/02 01:05:44;;;;;;;2.17;1.00;;;19.80;66.10;;;;;;5066864;28;43573;-61
2022/11/02 01:08:11;;;;;;;1.38;0.90;;;19.80;66.10;;;;;;5065047;28;43886;-61
2022/11/02 01:10:39;;;;;;;2.15;0.90;;;19.80;66.20;;;;;;5077094;27;43446;-61
2022/11/02 01:13:11;;;;;;;2.08;1.10;;;19.80;66.10;;;;;;5078058;28;43367;-61
2022/11/02 01:15:39;;;;;;;2.22;1.02;;;19.80;66.10;;;;;;5075930;28;43459;-61
2022/11/02 01:18:06;;;;;;;2.00;0.95;;;19.80;66.20;;;;;;5064994;28;43795;-61
2022/11/02 01:20:34;;;;;;;2.22;0.95;;;19.80;66.20;;;;;;5077181;27;43399;-61
2022/11/02 01:23:01;;;;;;;2.50;1.20;;;19.80;66.20;;;;;;5069576;28;43395;-62
2022/11/02 01:25:28;;;;;;;1.55;0.80;;;19.70;66.10;;;;;;5076365;28;43462;-61
2022/11/02 01:27:56;;;;;;;1.95;0.95;;;19.70;66.10;;;;;;5068849;28;44939;-61
2022/11/02 01:30:23;;;;;;;1.73;1.00;;;19.70;66.10;;;;;;5080541;27;43410;-61
2022/11/02 01:32:51;;;;;;;1.25;0.90;;;19.80;66.30;;;;;;5072598;28;43383;-61
2022/11/02 01:35:19;;;;;;;2.13;1.08;;;19.70;66.20;;;;;;5065011;28;43676;-61
2022/11/02 01:37:46;;;;;;;1.08;0.80;;;19.80;66.20;;;;;;5067143;28;44175;-61
2022/11/02 01:40:14;;;;;;;1.52;0.95;;;19.70;66.20;;;;;;5062726;28;43817;-62
2022/11/02 01:42:41;;;;;;;0.80;0.77;;;19.80;66.30;;;;;;5067437;28;43515;-62
2022/11/02 01:45:12;;;;;;;1.23;1.00;;;19.80;66.30;;;;;;5076809;28;43513;-61
2022/11/02 01:47:44;;;;;;;0.98;0.85;;;19.70;66.20;;;;;;5068334;28;45143;-61
2022/11/02 01:50:22;;;;;;;1.15;0.75;;;19.70;66.30;;;;;;5080524;28;43475;-61
2022/11/02 01:52:50;;;;;;;1.38;0.85;;;19.70;66.30;;;;;;5064239;28;43479;-61
2022/11/02 01:55:22;;;;;;;1.20;0.73;;;19.70;66.30;;;;;;5078621;28;43410;-61
2022/11/02 01:58:00;;;;;;;1.45;0.98;;;19.70;66.30;;;;;;5080209;28;43889;-61
2022/11/02 02:00:28;;;;;;;1.00;0.90;;;19.70;66.30;;;;;;5077704;28;43487;-62
2022/11/02 02:03:17;;;;;;;1.10;0.93;;;19.70;66.20;;;;;;5065680;28;43410;-61
2022/11/02 02:06:01;;;;;;;1.70;1.00;;;19.70;66.20;;;;;;5077478;28;43448;-61
2022/11/02 02:08:31;;;;;;;1.38;0.90;;;19.70;66.20;;;;;;5065414;28;44041;-61
2022/11/02 02:10:59;;;;;;;1.17;0.80;;;19.70;66.20;;;;;;5078348;28;43661;-62
2022/11/02 02:13:27;;;;;;;2.33;1.08;;;19.70;66.20;;;;;;5077630;28;43501;-61
2022/11/02 02:16:14;;;;;;;1.98;0.90;;;19.70;66.20;;;;;;5068522;28;43561;-61
2022/11/02 02:18:54;;;;;;;2.10;0.98;;;19.70;66.10;;;;;;5064011;28;43803;-61
2022/11/02 02:21:25;;;;;;;2.00;0.80;;;19.70;66.20;;;;;;5071665;28;44015;-62
2022/11/02 02:24:18;;;;;;;0.95;0.88;;;19.60;66.10;;;;;;5075261;28;43412;-62
2022/11/02 02:26:58;;;;;;;1.05;0.70;;;19.60;66.10;;;;;;5066579;28;43420;-62
2022/11/02 02:29:41;;;;;;;2.00;0.80;;;19.60;66.20;;;;;;5079702;27;43816;-61
2022/11/02 02:32:27;;;;;;;1.58;0.90;;;19.60;66.10;;;;;;5064531;28;43535;-62
2022/11/02 02:35:03;;;;;;;1.42;0.90;;;19.60;66.10;;;;;;5072850;28;43449;-62
2022/11/02 02:37:40;;;;;;;1.17;0.77;;;19.60;66.20;;;;;;5067620;28;43435;-62
2022/11/02 02:40:15;;;;;;;1.27;0.70;;;19.60;66.20;;;;;;5068453;28;44211;-62
2022/11/02 02:42:49;;;;;;;0.80;0.60;;;19.60;66.20;;;;;;5062351;28;43479;-62
2022/11/02 02:45:50;;;;;;;0.77;0.70;;;19.60;66.20;;;;;;5071787;28;43465;-61
2022/11/02 02:48:23;;;;;;;1.20;1.00;;;19.60;66.20;;;;;;4986648;28;43504;-61
2022/11/02 02:51:03;;;;;;;1.23;0.60;;;19.60;66.20;;;;;;5070502;28;44656;-62
2022/11/02 02:53:38;;;;;;;;;;;19.60;66.10;;;;;;5078068;28;43645;-62
2022/11/02 02:56:08;;;;;;;1.40;0.60;;;19.60;66.20;;;;;;5064779;28;43575;-62
2022/11/02 02:58:44;;;;;;;1.40;0.80;;;19.50;66.20;;;;;;5072196;28;43511;-61
2022/11/02 03:01:13;;;;;;;0.90;0.70;;;19.50;66.40;;;;;;5062163;28;43904;-61
2022/11/02 03:03:42;;;;;;;0.73;0.55;;;19.50;66.20;;;;;;5073969;28;43482;-61
2022/11/02 03:06:09;;;;;;;0.73;0.70;;;19.50;66.30;;;;;;5076111;28;43516;-61
2022/11/02 03:08:42;;;;;;;1.23;0.68;;;19.50;66.30;;;;;;5069214;28;43683;-62
2022/11/02 03:11:14;;;;;;;0.93;0.70;;;19.50;66.20;;;;;;5078347;28;44066;-62
2022/11/02 03:14:06;;;;;;;0.50;0.50;;;19.50;66.20;;;;;;5061477;28;43419;-61
2022/11/02 03:16:54;;;;;;;0.85;0.70;;;19.50;66.20;;;;;;5078100;27;43989;-62
2022/11/02 03:19:43;;;;;;;1.63;0.80;;;19.50;66.30;;;;;;5068929;28;43469;-61
2022/11/02 03:22:32;;;;;;;0.88;0.80;;;19.50;66.20;;;;;;5062421;28;43952;-62
2022/11/02 03:25:28;;;;;;;0.63;0.63;;;19.50;66.20;;;;;;5073850;28;43463;-61
2022/11/02 03:28:00;;;;;;;0.45;0.45;;;19.50;66.20;;;;;;5051049;28;43414;-62
2022/11/02 03:30:33;;;;;;;0.88;0.65;;;19.50;66.20;;;;;;5066096;28;43555;-62
2022/11/02 03:33:15;;;;;;;1.08;0.60;;;19.50;66.20;;;;;;5075703;28;43899;-62
2022/11/02 03:36:11;;;;;;;0.50;0.50;;;19.50;66.20;;;;;;5078107;28;44142;-61
2022/11/02 03:38:49;;;;;;;1.40;0.70;;;19.50;66.20;;;;;;5078145;27;43439;-62
2022/11/02 03:41:19;;;;;;;0.75;0.60;;;19.40;66.20;;;;;;5062864;28;43437;-61
2022/11/02 03:43:50;;;;;;;1.27;0.55;;;19.40;66.20;;;;;;5065072;27;44965;-61
2022/11/02 03:46:19;;;;;;;1.25;0.57;;;19.40;66.10;;;;;;5071857;28;43552;-61
2022/11/02 03:48:50;;;;;;;0.60;0.60;;;19.40;66.20;;;;;;5076741;28;43454;-62
2022/11/02 03:51:21;;;;;;;0.65;0.50;;;19.40;66.20;;;;;;5067926;28;43550;-61
2022/11/02 03:54:05;;;;;;;0.80;0.70;;;19.40;66.10;;;;;;5076593;28;43878;-61
2022/11/02 03:56:44;;;;;;;1.17;0.68;;;19.40;66.20;;;;;;5075366;28;43609;-61
2022/11/02 03:59:12;;;;;;;0.50;0.50;;;19.40;66.10;;;;;;5075689;28;43444;-62
2022/11/02 04:01:46;;;;;;;1.23;0.80;;;19.40;66.10;;;;;;5076747;28;43502;-62
2022/11/02 04:04:14;;;;;;;0.70;0.70;;;19.40;66.10;;;;;;5066731;28;43918;-62
2022/11/02 04:06:46;;;;;;;0.57;0.57;;;19.40;66.10;;;;;;5069556;28;43920;-61
2022/11/02 04:09:14;;;;;;;0.80;0.60;;;19.40;66.10;;;;;;5070561;28;43450;-62
2022/11/02 04:14:38;;;;;;;1.00;0.60;;;19.40;66.10;;;;;;5045020;28;43936;-61
2022/11/02 04:20:09;;;;;;;0.65;0.60;;;19.30;66.10;;;;;;5064060;28;43407;-62
2022/11/02 04:25:23;;;;;;;0.85;0.60;;;19.30;66.00;;;;;;5075559;28;44815;-61
2022/11/02 04:28:08;;;;;;;1.15;0.80;;;19.30;66.00;;;;;;5075878;27;43455;-61
2022/11/02 04:30:44;;;;;;;1.27;0.70;;;19.30;66.10;;;;;;5075896;28;43391;-61
2022/11/02 04:36:10;;;;;;;0.90;0.65;;;19.30;66.10;;;;;;5062414;28;43796;-61
2022/11/02 04:38:39;;;;;;;1.25;0.60;;;19.30;66.10;;;;;;5075675;28;43980;-61
2022/11/02 04:44:07;;;;;;;1.65;0.60;;;19.30;66.00;;;;;;5045421;28;43565;-61
2022/11/02 04:46:37;;;;;;;0.77;0.60;;;19.30;66.00;;;;;;5069979;28;44062;-61
2022/11/02 04:49:07;;;;;;;1.23;0.63;;;19.30;66.00;;;;;;5075540;28;43381;-62
2022/11/02 04:51:36;;;;;;;0.95;0.75;;;19.30;66.00;;;;;;5064499;28;43989;-62
2022/11/02 04:54:04;;;;;;;0.65;0.55;;;19.20;66.00;;;;;;5073922;28;43501;-62
2022/11/02 04:56:32;;;;;;;1.15;0.70;;;19.30;66.00;;;;;;5076181;28;44687;-61
2022/11/02 04:59:00;;;;;;;1.58;0.80;;;19.20;66.00;;;;;;5077205;28;43412;-62
2022/11/02 05:01:30;;;;;;;0.70;0.70;;;19.20;66.00;;;;;;5069564;28;43438;-61
2022/11/02 05:04:00;;;;;;;0.88;0.65;;;19.20;65.90;;;;;;5077101;28;43592;-61
2022/11/02 05:06:30;;;;;;;0.77;0.60;;;19.20;65.90;;;;;;5065266;28;43848;-61
2022/11/02 05:08:57;;;;;;;1.88;0.98;;;19.20;66.00;;;;;;5076396;28;43500;-62
2022/11/02 05:11:25;;;;;;;0.95;0.80;;;19.20;66.00;;;;;;5079838;27;43562;-62
2022/11/02 05:13:54;;;;;;;1.15;0.70;;;19.20;66.60;;;;;;5059143;28;43462;-61
2022/11/02 05:16:22;;;;;;;0.63;0.57;;;19.20;66.00;;;;;;5055610;28;44221;-62
2022/11/02 05:18:52;;;;;;;1.30;0.63;;;19.20;65.90;;;;;;5068603;28;43704;-61
2022/11/02 05:21:21;;;;;;;1.80;1.02;;;19.20;65.90;;;;;;5069106;28;43470;-61
2022/11/02 05:23:50;;;;;;;2.10;1.08;;;19.20;65.90;;;;;;5078661;28;43606;-61
2022/11/02 05:26:17;;;;;;;1.65;0.90;;;19.20;65.90;;;;;;5081295;27;44653;-61
2022/11/02 05:28:49;;;;;;;1.38;0.80;;;19.20;66.00;;;;;;5072001;28;43499;-61
2022/11/02 05:31:16;;;;;;;1.23;0.80;;;19.20;65.90;;;;;;5077109;28;43515;-61
2022/11/02 05:33:44;;;;;;;0.80;0.70;;;19.20;66.00;;;;;;5080016;28;43594;-62
2022/11/02 05:36:16;;;;;;;1.77;0.90;;;19.10;65.90;;;;;;5060489;28;44003;-61
2022/11/02 05:38:46;;;;;;;1.83;0.80;;;19.20;66.00;;;;;;5076241;28;43420;-62
2022/11/02 05:41:14;;;;;;;1.38;0.63;;;19.10;65.90;;;;;;5065698;28;43964;-61
2022/11/02 05:43:42;;;;;;;1.05;0.73;;;19.20;66.00;;;;;;5074092;28;43463;-61
2022/11/02 05:46:14;;;;;;;1.70;1.00;;;19.10;65.90;;;;;;5080070;28;44925;-62
2022/11/02 05:48:41;;;;;;;1.70;0.68;;;19.10;65.90;;;;;;5079711;28;43715;-61
2022/11/02 05:51:09;;;;;;;1.15;0.93;;;19.10;65.90;;;;;;5078213;28;43922;-62
2022/11/02 05:53:37;;;;;;;1.40;0.90;;;19.10;65.90;;;;;;5080008;27;43559;-61
2022/11/02 05:56:07;;;;;;;1.40;0.90;;;19.10;66.00;;;;;;5080505;27;44061;-61
2022/11/02 05:58:35;;;;;;;1.52;1.05;;;19.10;66.60;;;;;;5078454;27;43466;-61
2022/11/02 06:01:06;;;;;;;1.13;0.85;;;19.10;66.00;;;;;;5079157;28;43405;-61
2022/11/02 06:03:34;;;;;;;0.93;0.63;;;19.10;66.10;;;;;;5067019;27;43572;-61
2022/11/02 06:06:08;;;;;;;1.67;0.70;;;19.10;66.00;;;;;;5069420;28;45035;-61
2022/11/02 06:08:37;;;;;;;1.27;0.80;;;19.10;66.10;;;;;;5075235;28;43433;-62
2022/11/02 06:11:10;;;;;;;3.05;0.98;;;19.10;66.00;;;;;;5076707;28;43474;-62
2022/11/02 06:13:38;;;;;;;1.33;0.63;;;19.10;66.00;;;;;;5064401;28;43535;-62
2022/11/02 06:16:10;;;;;;;1.25;0.80;;;19.10;66.00;;;;;;5068569;27;43956;-61
2022/11/02 06:18:38;;;;;;;1.00;0.77;;;19.10;66.00;;;;;;5065532;28;43819;-61
2022/11/02 06:21:06;;;;;;;1.70;1.00;;;19.10;65.90;;;;;;5063297;28;43471;-61
2022/11/02 06:23:34;;;;;;;1.45;1.15;;;19.10;65.90;;;;;;5066713;28;43596;-61
2022/11/02 06:26:01;;;;;;;1.88;1.08;;;19.10;65.90;;;;;;5077206;28;44095;-61
2022/11/02 06:28:29;;;;;;;2.40;1.10;;;19.10;66.00;;;;;;5077552;28;43387;-61
2022/11/02 06:30:58;;;;;;;0.90;0.88;;;19.10;66.00;;;;;;5079739;28;43448;-61
2022/11/02 06:33:25;;;;;;;1.45;0.90;;;19.10;65.90;;;;;;5072997;27;43465;-61
2022/11/02 06:35:54;;;;;;;0.98;0.65;;;19.10;66.00;;;;;;5077545;28;44410;-62
2022/11/02 06:38:22;;;;;;;2.83;1.15;;;19.10;66.00;;;;;;5069580;27;43456;-61
2022/11/02 06:40:59;;;;;;;1.50;0.85;;;19.10;66.00;;;;;;5064196;28;43399;-61
2022/11/02 06:43:26;;;;;;;1.50;0.80;;;19.10;66.00;;;;;;5064984;28;43590;-61
2022/11/02 06:45:54;;;;;;;1.85;0.95;;;19.00;65.90;;;;;;5062504;28;44635;-62
2022/11/02 06:48:23;;;;;;;1.75;0.93;;;19.00;65.90;;;;;;5068358;28;43461;-61
2022/11/02 06:50:55;;;;;;;1.73;1.00;;;19.10;66.00;;;;;;5067767;28;43477;-62
2022/11/02 06:53:23;;;;;;;2.15;0.82;;;19.10;66.10;;;;;;5075979;28;43504;-61
2022/11/02 06:55:55;;;;;;;1.45;0.98;;;19.00;66.00;;;;;;5071067;28;43785;-62
2022/11/02 06:58:23;;;;;;;1.92;0.90;;;19.00;66.00;;;;;;5062781;28;43441;-62
2022/11/02 07:01:01;;;;;;;2.25;0.98;;;19.00;66.00;;;;;;5066192;28;43364;-61
2022/11/02 07:03:29;;;;;;;2.35;1.08;;;19.00;66.10;;;;;;5065284;28;43453;-61
2022/11/02 07:05:57;;;;;;;2.10;1.10;;;19.00;66.00;;;;;;5070660;28;43930;-62
2022/11/02 07:08:26;;;;;;;1.73;1.02;;;19.00;66.00;;;;;;5073182;28;43455;-61
2022/11/02 07:10:54;;;;;;;3.38;1.10;;;19.00;66.00;;;;;;5071715;28;43456;-61
2022/11/02 07:13:21;;;;;;;1.92;1.10;;;19.10;66.10;;;;;;5062984;28;43677;-61
2022/11/02 07:15:53;;;;;;;3.63;1.00;;;19.10;66.00;;;;;;5072459;28;44809;-61
2022/11/02 07:18:21;;;;;;;2.05;1.20;;;19.10;66.10;;;;;;5074125;28;43475;-61
2022/11/02 07:20:48;;;;;;;3.13;1.02;;;19.00;66.00;;;;;;5071983;28;43476;-61
2022/11/02 07:23:16;;;;;;;1.77;0.93;;;19.00;66.00;;;;;;5076138;28;43632;-62
2022/11/02 07:25:43;;;;;;;2.80;0.90;;;19.00;66.00;;;;;;5076979;27;44067;-62
2022/11/02 07:28:10;;;;;;;4.30;1.33;;;19.00;65.90;;;;;;5079767;27;43452;-62
2022/11/02 07:30:38;;;;;;;1.50;1.00;;;19.00;65.90;;;;;;5073972;27;43446;-62
2022/11/02 07:33:05;;;;;;;1.48;0.80;;;19.00;66.00;;;;;;5076720;28;43472;-62
2022/11/02 07:35:34;;;;;;;3.10;1.13;;;19.00;66.00;;;;;;5068516;28;44216;-61
2022/11/02 07:38:03;;;;;;;1.60;1.00;;;19.00;66.10;;;;;;5067767;28;43436;-61
2022/11/02 07:40:33;;;;;;;3.53;1.17;;;19.00;66.00;;;;;;5067347;28;43386;-61
2022/11/02 07:43:01;;;;;;;5.07;1.50;;;18.90;66.00;;;;;;5061212;28;43637;-61
2022/11/02 07:56:10;;;;;;;2.47;1.60;;;18.90;66.00;;;;;;5080640;27;43459;-63
2022/11/02 07:58:37;;;;;;;3.63;1.73;;;19.30;65.80;;;;;;5058717;28;43402;-62
2022/11/02 08:01:05;;;;;;;6.20;1.40;;;19.40;65.70;;;;;;5056344;28;43519;-63
2022/11/02 08:03:32;;;;;;;3.97;1.50;;;19.50;65.60;;;;;;5047357;28;43590;-62
2022/11/02 08:06:03;;;;;;;3.42;1.60;;;19.60;66.00;;;;;;5062270;28;43811;-59
2022/11/02 08:08:32;;;;;;;2.85;1.38;;;19.70;66.00;;;;;;5061631;28;43531;-60
2022/11/02 08:11:05;;;;;;;2.55;1.20;;;19.90;66.10;;;;;;5063949;28;43471;-64
2022/11/02 08:13:35;;;;;;;3.75;1.20;;;20.00;65.10;;;;;;5064829;28;43548;-63
2022/11/02 08:16:03;;;;;;;2.38;1.48;;;20.10;64.80;;;;;;5058293;28;44937;-62
2022/11/02 08:18:31;;;;;;;2.67;1.27;;;20.30;64.50;;;;;;5059538;28;43657;-61
2022/11/02 08:20:59;;;;;;;3.40;1.17;;;20.40;64.30;;;;;;5061145;28;43420;-64
2022/11/02 08:23:26;;;;;;;4.72;1.65;;;20.60;63.80;;;;;;5057754;28;43476;-64
2022/11/02 08:25:57;;;;;;;2.95;1.50;;;20.80;63.60;;;;;;5054336;28;43701;-62
2022/11/02 08:28:27;;;;;;;2.20;1.40;;;20.90;63.80;;;;;;5037311;28;43897;-61
2022/11/02 08:30:56;;;;;;;2.72;1.40;;;21.10;63.10;;;;;;5063984;28;43407;-63
2022/11/02 08:33:23;;;;;;;2.70;1.30;;;21.20;63.00;;;;;;5060067;28;43495;-60
2022/11/02 08:35:52;;;;;;;1.85;1.20;;;21.30;62.60;;;;;;5069418;28;43890;-64
2022/11/02 08:38:21;;;;;;;2.10;1.30;;;21.40;62.30;;;;;;5035543;28;43511;-62
2022/11/02 08:40:48;;;;;;;3.33;1.55;;;21.60;62.20;;;;;;5037483;28;43481;-60
2022/11/02 08:43:16;;;;;;;3.47;1.50;;;21.70;62.30;;;;;;5061515;28;43521;-60
2022/11/02 08:45:44;;;;;;;1.80;1.13;;;21.90;62.40;;;;;;5053831;28;44043;-62
2022/11/02 08:48:32;;;;;;;4.53;1.42;;;22.10;61.80;;;;;;5031533;28;45221;-62
2022/11/02 08:50:59;;;;;;;5.90;1.55;;;22.20;61.60;;;;;;5061784;28;44097;-64
2022/11/02 08:53:27;;;;;;;2.70;1.27;;;22.40;61.30;;;;;;5050987;28;43475;-65
2022/11/02 08:55:57;;;;;;;2.83;1.35;;;22.50;61.00;;;;;;5049564;28;44783;-62
2022/11/02 08:58:25;;;;;;;3.75;1.20;;;22.60;60.80;;;;;;5031705;28;43741;-62
2022/11/02 09:00:53;;;;;;;4.93;1.40;;;22.70;61.40;;;;;;5047032;28;43984;-64
2022/11/02 09:03:23;;;;;;;4.68;1.27;;;22.90;60.30;;;;;;5031878;28;43502;-63
2022/11/02 09:06:01;;;;;;;3.35;1.38;;;23.00;60.10;;;;;;5042239;28;43877;-65
2022/11/02 09:08:29;;;;;;;2.75;1.33;;;23.20;60.00;;;;;;5042746;28;43430;-65
2022/11/02 09:11:00;;;;;;;4.00;1.00;;;23.30;59.80;;;;;;5039704;28;43516;-63
2022/11/02 09:13:28;;;;;;;2.28;1.30;;;23.40;59.50;;;;;;5045037;28;43580;-62
2022/11/02 09:15:57;;;;;;;3.15;1.30;;;23.50;59.30;;;;;;5042944;28;43846;-61
2022/11/02 09:18:25;;;;;;;1.85;1.00;;;23.50;59.50;;;;;;5030724;28;43488;-63
2022/11/02 09:20:53;;;;;;;1.95;1.15;;;23.50;59.50;;;;;;5023755;28;43541;-57
2022/11/02 09:23:21;;;;;;;4.05;1.38;;;23.60;59.40;;;;;;5049194;28;43944;-63
2022/11/02 09:25:49;;;;;;;2.95;0.93;;;23.60;58.90;;;;;;5050225;28;43588;-63
2022/11/02 09:28:17;;;;;;;3.25;1.30;;;23.50;59.00;;;;;;5052854;28;44004;-63
2022/11/02 09:30:45;;;;;;;2.25;1.10;;;23.50;59.10;;;;;;5048146;28;44067;-63
2022/11/02 09:33:12;;;;;;;3.28;1.40;;;23.50;59.10;;;;;;5042566;28;43451;-63
2022/11/02 09:35:43;;;;;;;3.15;1.40;;;23.40;60.30;;;;;;5035145;28;44772;-62
2022/11/02 09:38:11;;;;;;;2.55;1.10;;;23.30;59.10;;;;;;5022836;28;43499;-62
2022/11/02 09:40:57;;;;;;;3.13;1.20;;;23.30;59.00;;;;;;5047394;28;43443;-63
2022/11/02 09:43:40;;;;;;;2.00;1.15;;;23.20;59.20;;;;;;5045485;28;43467;-62
2022/11/02 09:46:20;;;;;;;2.78;1.10;;;23.10;60.00;;;;;;5045513;28;44974;-63
2022/11/02 09:48:57;;;;;;;4.47;1.33;;;23.00;59.60;;;;;;5043616;28;43604;-63
2022/11/02 09:51:35;;;;;;;4.13;1.20;;;23.00;59.60;;;;;;5050716;28;43444;-63
2022/11/02 09:54:14;;;;;;;3.92;1.23;;;22.90;59.50;;;;;;5033715;28;43585;-63
2022/11/02 09:56:45;;;;;;;3.72;1.58;;;22.80;59.60;;;;;;5043048;28;44081;-63
2022/11/02 09:59:18;;;;;;;2.83;1.30;;;22.80;59.80;;;;;;5043022;28;44267;-63
2022/11/02 10:01:57;;;;;;;3.35;1.48;;;22.70;59.90;;;;;;5041981;28;43420;-63
2022/11/02 10:04:37;;;;;;;3.08;1.38;;;22.70;60.20;;;;;;5047572;28;43438;-63
2022/11/02 10:07:31;;;;;;;3.33;1.50;;;22.60;60.30;;;;;;5036627;28;45075;-63
2022/11/02 10:10:04;;;;;;;3.40;1.52;;;22.60;60.70;;;;;;5045804;28;43574;-64
2022/11/02 10:12:53;;;;;;;6.95;1.45;;;22.50;60.60;;;;;;5042477;28;43463;-63
2022/11/02 10:15:35;;;;;;;4.07;1.10;;;22.50;60.60;;;;;;5038919;28;43433;-64
2022/11/02 10:18:05;;;;;;;3.83;1.20;;;22.50;60.60;;;;;;5041552;28;44320;-68
2022/11/02 10:20:38;;;;;;;4.82;1.60;;;22.40;62.00;;;;;;5028551;28;43643;-61
2022/11/02 10:23:26;;;;;;;4.45;1.70;;;22.40;61.50;;;;;;5041859;28;43469;-61
2022/11/02 10:25:54;;;;;;;1.92;1.40;;;22.40;60.90;;;;;;5040046;28;43507;-63
2022/11/02 10:28:38;;;;;;;2.15;1.30;;;22.30;60.40;;;;;;5037187;28;43877;-63
2022/11/02 10:31:22;;;;;;;4.10;1.30;;;22.30;60.60;;;;;;5045893;28;43437;-63
2022/11/02 10:33:50;;;;;;;3.30;1.40;;;22.20;60.60;;;;;;5027114;28;43559;-64
2022/11/02 10:37:00;;;;;;;5.72;1.88;;;22.20;60.80;;;;;;5025006;28;43577;-64
2022/11/02 10:39:41;;;;;;;4.53;1.60;;;22.10;60.90;;;;;;5030091;28;43882;-64
2022/11/02 10:42:51;;;;;;;5.40;1.60;;;22.00;60.90;;;;;;5022676;28;43460;-64
2022/11/02 10:45:50;;;;;;;2.35;1.40;;;22.00;61.10;;;;;;5045268;28;43964;-63
2022/11/02 10:48:59;;;;;;;3.75;1.50;;;22.00;61.10;;;;;;5041884;28;43631;-64
2022/11/02 10:51:28;;;;;;;3.88;1.75;;;21.90;61.10;;;;;;5043458;28;44991;-64
2022/11/02 10:53:56;;;;;;;2.92;1.45;;;21.90;61.30;;;;;;5025995;28;43497;-65
2022/11/02 10:56:32;;;;;;;3.88;1.40;;;21.90;61.40;;;;;;5036581;28;43393;-63
2022/11/02 10:58:59;;;;;;;2.58;1.33;;;21.80;61.40;;;;;;5049071;28;43415;-63
2022/11/02 11:01:28;;;;;;;3.85;1.60;;;21.80;61.50;;;;;;5043029;28;43704;-64
2022/11/02 11:04:05;;;;;;;3.03;1.60;;;21.80;61.50;;;;;;5039146;28;43524;-65
2022/11/02 11:06:41;;;;;;;2.67;1.10;;;21.80;61.50;;;;;;5038622;28;43388;-63
2022/11/02 11:09:29;;;;;;;3.97;1.50;;;21.80;61.60;;;;;;5040538;28;43404;-64
2022/11/02 11:12:19;;;;;;;3.97;1.45;;;21.80;61.20;;;;;;5037997;28;43690;-63
2022/11/02 11:14:52;;;;;;;3.25;1.35;;;21.80;61.70;;;;;;5045040;28;43568;-63
2022/11/02 11:17:41;;;;;;;5.07;1.83;;;21.70;61.40;;;;;;5044539;28;44101;-63
2022/11/02 11:20:35;;;;;;;3.40;1.30;;;21.80;61.60;;;;;;5037988;28;43595;-62
2022/11/02 11:23:08;;;;;;;2.47;1.35;;;21.80;61.60;;;;;;5039097;28;45175;-63
2022/11/02 11:25:36;;;;;;;3.35;1.70;;;21.70;61.60;;;;;;5021563;28;43443;-63
2022/11/02 11:28:27;;;;;;;5.78;1.80;;;21.70;61.60;;;;;;5039153;28;43506;-63
2022/11/02 11:31:01;;;;;;;;;;;21.70;61.50;;;;;;5042282;28;43493;-63
2022/11/02 11:33:31;;;;;;;2.90;1.33;;;21.70;61.50;;;;;;5036817;28;44074;-64
2022/11/02 11:36:00;;;;;;;3.53;1.42;;;21.60;61.60;;;;;;5036360;28;43461;-63
2022/11/02 11:38:27;;;;;;;4.35;1.77;;;21.60;61.70;;;;;;5032925;28;43447;-62
2022/11/02 11:40:58;;;;;;;2.78;1.60;;;21.60;61.80;;;;;;5043255;28;43599;-62
2022/11/02 11:43:36;;;;;;;3.33;1.63;;;21.60;61.50;;;;;;5037578;28;43859;-63
2022/11/02 11:46:06;;;;;;;4.85;1.70;;;21.60;61.50;;;;;;5037855;28;44011;-62
2022/11/02 11:48:48;;;;;;;4.55;1.65;;;21.60;62.20;;;;;;5038432;28;43432;-63
2022/11/02 11:51:36;;;;;;;3.80;1.80;;;21.50;61.50;;;;;;5030737;28;43479;-63
2022/11/02 11:54:20;;;;;;;5.55;1.90;;;21.50;61.70;;;;;;5040329;28;44662;-63
2022/11/02 11:56:50;;;;;;;4.75;1.65;;;21.50;61.90;;;;;;5040055;28;43861;-63
2022/11/02 11:59:26;;;;;;;3.50;1.67;;;21.50;62.20;;;;;;5037040;28;43485;-63
2022/11/02 12:01:59;;;;;;;3.15;1.80;;;21.50;62.20;;;;;;5041101;28;43532;-62
2022/11/02 12:04:36;;;;;;;3.85;1.50;;;21.50;62.10;;;;;;5037497;28;43918;-63
2022/11/02 12:07:04;;;;;;;4.35;1.80;;;21.50;61.90;;;;;;5023154;28;43520;-62
2022/11/02 12:09:40;;;;;;;5.00;1.90;;;21.50;62.00;;;;;;5038436;28;43451;-63
2022/11/02 12:12:37;;;;;;;3.97;1.50;;;21.50;62.20;;;;;;5034936;28;43385;-62
2022/11/02 12:15:23;;;;;;;4.60;1.45;;;21.50;62.20;;;;;;5033461;28;43796;-62
2022/11/02 12:18:16;;;;;;;2.95;1.60;;;21.50;62.10;;;;;;5032415;28;43948;-63
2022/11/02 12:21:18;;;;;;;4.55;1.35;;;21.40;62.00;;;;;;5037728;28;43485;-63
2022/11/02 12:24:08;;;;;;;2.15;1.20;;;21.40;62.00;;;;;;5042895;28;43506;-62
2022/11/02 12:26:52;;;;;;;3.22;1.58;;;21.40;62.10;;;;;;5037533;28;43953;-63
2022/11/02 12:29:34;;;;;;;4.03;1.85;;;21.40;62.10;;;;;;5047357;28;43393;-63
2022/11/02 12:32:14;;;;;;;3.53;1.40;;;21.50;61.60;;;;;;5046526;28;43522;-63
2022/11/02 12:35:00;;;;;;;2.78;1.40;;;21.40;61.60;;;;;;5039292;28;43519;-63
2022/11/02 12:37:59;;;;;;;2.45;1.30;;;21.40;61.80;;;;;;5044083;28;45005;-63
2022/11/02 12:40:41;;;;;;;2.42;1.45;;;21.40;62.00;;;;;;5053499;28;43959;-63
2022/11/02 12:43:39;;;;;;;3.72;1.75;;;21.40;62.00;;;;;;5049375;28;43969;-63
2022/11/02 12:46:32;;;;;;;4.00;1.75;;;21.50;62.00;;;;;;5044997;28;43538;-63
2022/11/02 12:49:29;;;;;;;4.55;1.70;;;21.40;61.80;;;;;;5046808;28;44988;-63
2022/11/02 12:52:14;;;;;;;1.73;1.30;;;21.40;61.80;;;;;;5048354;28;43473;-63
2022/11/02 12:54:56;;;;;;;1.95;1.63;;;21.40;61.80;;;;;;5041897;28;43503;-63
2022/11/02 12:57:27;;;;;;;2.53;1.17;;;21.40;61.80;;;;;;5045485;28;43646;-63
2022/11/02 13:00:04;;;;;;;3.50;1.60;;;21.40;61.70;;;;;;5039896;28;44692;-63
2022/11/02 13:02:45;;;;;;;2.72;1.40;;;21.40;61.70;;;;;;5022660;28;43901;-63
2022/11/02 13:05:13;;;;;;;;;;;21.40;61.50;;;;;;5043504;28;43445;-63
2022/11/02 13:07:46;;;;;;;2.35;1.45;;;21.40;61.70;;;;;;5033773;28;43581;-63
2022/11/02 13:10:23;;;;;;;2.25;1.30;;;21.40;61.80;;;;;;5045365;28;43741;-63
2022/11/02 13:12:55;;;;;;;4.53;1.48;;;21.40;61.90;;;;;;5048961;28;43427;-63
2022/11/02 13:15:25;;;;;;;3.33;1.38;;;21.40;61.90;;;;;;5044288;28;43447;-62
2022/11/02 13:17:53;;;;;;;2.55;1.38;;;21.40;61.70;;;;;;5040654;28;43584;-63
2022/11/02 13:20:34;;;;;;;2.45;1.20;;;21.40;61.50;;;;;;5043075;28;44777;-62
2022/11/02 13:23:16;;;;;;;5.88;1.50;;;21.40;61.50;;;;;;5044175;28;43575;-62
2022/11/02 13:25:50;;;;;;;3.47;1.40;;;21.40;61.40;;;;;;5024082;28;43441;-62
2022/11/02 13:28:30;;;;;;;2.28;1.30;;;21.30;61.50;;;;;;5047462;28;43460;-62
2022/11/02 13:30:58;;;;;;;3.30;1.30;;;21.30;61.50;;;;;;5050471;28;44663;-62
2022/11/02 13:33:35;;;;;;;4.05;1.40;;;21.30;61.50;;;;;;5045163;28;44088;-62
2022/11/02 13:36:04;;;;;;;2.83;1.42;;;21.30;61.50;;;;;;5041670;28;43427;-62
2022/11/02 13:38:38;;;;;;;3.65;1.50;;;21.30;61.60;;;;;;5043924;28;43562;-63
2022/11/02 13:41:18;;;;;;;3.00;1.45;;;21.30;61.70;;;;;;5036045;28;43882;-62
2022/11/02 13:44:15;;;;;;;4.32;1.60;;;21.20;61.60;;;;;;5041134;28;43983;-62
2022/11/02 13:46:54;;;;;;;4.03;1.45;;;21.20;61.60;;;;;;5040174;28;43409;-63